Time;durP1;ratioP1;P1;durP2;ratioP2;P2;SDS_P1;SDS_P2;PMS_P1;PMS_P2;Temp;Humidity;BMP_temperature;BMP_pressure;BME280_temperature;BME280_humidity;BME280_pressure;Samples;Min_cycle;Max_cycle;Signal;HPM_P1;HPM_P2
2023/05/03 00:01:37;;;;;;;5.00;1.38;;;;;;;8.77;49.16;101093.16;5050989;28;20457;-78
2023/05/03 00:04:05;;;;;;;3.63;1.85;;;;;;;8.76;49.47;101094.06;5049928;28;20103;-78
2023/05/03 00:06:31;;;;;;;5.60;1.60;;;;;;;8.76;49.29;101089.69;5050536;28;20048;-80
2023/05/03 00:08:58;;;;;;;4.95;1.38;;;;;;;8.77;49.53;101085.28;5050899;28;20127;-79
2023/05/03 00:11:25;;;;;;;4.22;1.40;;;;;;;8.78;49.36;101076.53;5049557;28;20124;-79
2023/05/03 00:13:52;;;;;;;3.45;1.50;;;;;;;8.80;49.33;101077.34;5050759;28;20048;-78
2023/05/03 00:16:19;;;;;;;6.07;1.58;;;;;;;8.81;49.19;101082.53;5049099;28;20448;-80
2023/05/03 00:18:46;;;;;;;3.85;1.60;;;;;;;8.82;49.50;101080.78;5050493;28;20045;-79
2023/05/03 00:21:14;;;;;;;5.38;1.55;;;;;;;8.82;49.07;101080.78;5050666;28;20053;-81
2023/05/03 00:23:41;;;;;;;3.00;1.45;;;;;;;8.82;49.39;101083.41;5049620;28;20040;-80
2023/05/03 00:26:07;;;;;;;6.07;1.83;;;;;;;8.82;49.34;101088.66;5050290;28;20136;-80
2023/05/03 00:28:34;;;;;;;11.15;2.10;;;;;;;8.82;49.46;101083.41;5050536;28;20079;-79
2023/05/03 00:31:08;;;;;;;3.45;1.55;;;;;;;8.79;50.30;101086.13;5049226;28;20183;-81
2023/05/03 00:33:36;;;;;;;2.58;1.48;;;;;;;8.82;49.51;101079.00;5049509;28;20049;-79
2023/05/03 00:36:10;;;;;;;7.63;1.85;;;;;;;8.80;50.51;101079.97;5050203;28;20756;-80
2023/05/03 00:38:37;;;;;;;3.47;1.50;;;;;;;8.83;49.54;101082.50;5050281;28;20044;-79
2023/05/03 00:41:04;;;;;;;6.20;1.55;;;;;;;8.84;49.42;101081.59;5049446;28;20044;-78
2023/05/03 00:43:31;;;;;;;4.47;1.60;;;;;;;8.83;49.36;101079.88;5050559;28;20079;-78
2023/05/03 00:45:59;;;;;;;3.65;1.60;;;;;;;8.83;49.34;101079.88;5050138;28;20056;-79
2023/05/03 00:48:41;;;;;;;5.40;1.45;;;;;;;8.84;49.18;101086.84;5050160;28;20044;-78
2023/05/03 00:51:08;;;;;;;5.78;1.48;;;;;;;8.82;49.44;101094.75;5050416;28;20132;-81
2023/05/03 00:53:35;;;;;;;2.80;1.42;;;;;;;8.80;49.54;101082.59;5050729;28;20140;-77
2023/05/03 00:56:04;;;;;;;5.35;1.88;;;;;;;8.79;49.67;101088.75;5050150;28;20156;-77
2023/05/03 00:58:32;;;;;;;5.00;1.67;;;;;;;8.78;49.77;101098.38;5049884;28;20048;-79
2023/05/03 01:00:59;;;;;;;4.40;1.60;;;;;;;8.78;49.64;101084.41;5048882;28;20548;-79
2023/05/03 01:03:27;;;;;;;4.97;1.70;;;;;;;8.78;49.71;101087.03;5050937;28;20124;-78
2023/05/03 01:06:31;;;;;;;4.40;1.50;;;;;;;8.73;50.65;101093.28;5051968;28;20465;-78
2023/05/03 01:09:04;;;;;;;4.22;1.55;;;;;;;8.77;50.15;101095.78;5054448;28;20044;-79
2023/05/03 01:12:13;;;;;;;4.35;1.58;;;;;;;8.73;50.35;101087.16;5054408;28;20045;-78
2023/05/03 01:14:45;;;;;;;5.55;1.77;;;;;;;8.75;49.62;101087.97;5054423;28;20045;-78
2023/05/03 01:17:13;;;;;;;12.10;1.90;;;;;;;8.74;49.53;101086.25;5053596;28;20040;-79
2023/05/03 01:19:47;;;;;;;4.57;1.80;;;;;;;8.71;50.36;101092.44;5054097;28;20091;-81
2023/05/03 01:22:46;;;;;;;5.97;1.98;;;;;;;8.72;49.67;101090.69;5052838;28;20049;-78
2023/05/03 01:25:15;;;;;;;4.50;1.55;;;;;;;8.70;49.37;101095.09;5020108;28;20045;-78
2023/05/03 01:27:42;;;;;;;5.97;1.95;;;;;;;8.67;49.68;101096.06;5053881;28;20057;-78
2023/05/03 01:30:10;;;;;;;3.85;1.65;;;;;;;8.63;49.72;101102.28;5052846;28;20052;-78
2023/05/03 01:33:05;;;;;;;6.53;1.75;;;;;;;8.58;50.87;101096.31;5054086;28;20037;-78
2023/05/03 01:35:36;;;;;;;4.32;2.00;;;;;;;8.57;50.91;101100.69;5053663;28;20040;-78
2023/05/03 01:38:04;;;;;;;7.72;2.30;;;;;;;8.57;50.16;101102.47;5053477;28;20075;-78
2023/05/03 01:40:33;;;;;;;6.95;2.00;;;;;;;8.54;50.33;101108.66;5053606;28;20053;-79
2023/05/03 01:43:02;;;;;;;4.00;1.95;;;;;;;8.52;50.20;101106.94;5052302;28;20049;-78
2023/05/03 01:45:28;;;;;;;4.03;2.17;;;;;;;8.50;50.18;101103.50;5052037;28;20445;-80
2023/05/03 01:47:56;;;;;;;2.92;1.65;;;;;;;8.46;50.27;101103.56;5053368;28;20127;-78
2023/05/03 01:50:22;;;;;;;3.53;2.20;;;;;;;8.44;50.26;101104.50;5053617;28;20545;-80
2023/05/03 01:52:51;;;;;;;5.50;2.05;;;;;;;8.42;50.16;101096.69;5053568;28;20049;-78
2023/05/03 01:55:18;;;;;;;6.10;2.28;;;;;;;8.39;50.15;101102.03;5053147;28;20064;-78
2023/05/03 01:57:44;;;;;;;6.25;2.15;;;;;;;8.37;50.21;101098.56;5052854;28;20123;-78
2023/05/03 02:00:11;;;;;;;4.47;2.28;;;;;;;8.36;50.22;101096.84;5051992;28;20055;-80
2023/05/03 02:02:38;;;;;;;6.93;2.30;;;;;;;8.34;50.66;101093.41;5053455;28;20052;-78
2023/05/03 02:05:05;;;;;;;4.43;2.25;;;;;;;8.33;50.58;101097.78;5051660;28;20049;-77
2023/05/03 02:07:32;;;;;;;3.97;2.00;;;;;;;8.33;50.64;101099.53;5052761;28;20053;-78
2023/05/03 02:09:58;;;;;;;3.85;2.30;;;;;;;8.33;50.99;101107.41;5053289;28;20049;-77
2023/05/03 02:12:25;;;;;;;5.68;2.10;;;;;;;8.34;50.83;101106.53;5053107;28;20052;-78
2023/05/03 02:14:51;;;;;;;7.57;2.22;;;;;;;8.34;50.53;101109.16;5052969;28;20068;-82
2023/05/03 02:17:19;;;;;;;5.40;2.30;;;;;;;8.34;50.73;101114.41;5052428;28;20103;-79
2023/05/03 02:19:46;;;;;;;3.97;2.30;;;;;;;8.34;50.71;101109.16;5052972;28;20442;-78
2023/05/03 02:22:12;;;;;;;6.93;2.35;;;;;;;8.34;50.80;101114.41;5053016;28;20135;-80
2023/05/03 02:24:39;;;;;;;4.65;2.53;;;;;;;8.33;50.77;101107.41;5052927;28;20131;-78
2023/05/03 02:27:05;;;;;;;4.55;2.28;;;;;;;8.32;50.77;101111.81;5052442;28;20044;-78
2023/05/03 02:29:32;;;;;;;4.25;2.03;;;;;;;8.30;50.69;101124.09;5051811;28;20080;-79
2023/05/03 02:31:59;;;;;;;4.18;2.10;;;;;;;8.30;50.79;101121.47;5053125;28;20543;-79
2023/05/03 02:34:26;;;;;;;3.45;2.00;;;;;;;8.26;50.90;101127.69;5051565;28;20041;-80
2023/05/03 02:36:53;;;;;;;4.63;2.25;;;;;;;8.25;50.75;101120.72;5052000;28;20041;-80
2023/05/03 02:39:20;;;;;;;5.20;2.05;;;;;;;8.21;51.21;101122.56;5052627;28;20127;-79
2023/05/03 02:41:46;;;;;;;4.20;2.33;;;;;;;8.18;50.85;101125.28;5052525;28;20548;-79
2023/05/03 02:44:13;;;;;;;3.83;2.38;;;;;;;8.16;51.28;101129.72;5051483;28;20501;-80
2023/05/03 02:46:40;;;;;;;4.38;1.98;;;;;;;8.14;51.03;101126.25;5051775;28;20080;-79
2023/05/03 02:49:08;;;;;;;5.70;2.60;;;;;;;8.13;51.22;101129.78;5052550;28;20048;-78
2023/05/03 02:51:35;;;;;;;5.43;2.70;;;;;;;8.12;51.01;101132.44;5051021;28;20049;-79
2023/05/03 02:54:02;;;;;;;5.78;2.22;;;;;;;8.11;51.52;101134.19;5050950;28;20044;-80
2023/05/03 02:56:28;;;;;;;4.07;2.10;;;;;;;8.09;51.15;101120.25;5052138;28;20098;-80
2023/05/03 02:58:55;;;;;;;4.68;2.65;;;;;;;8.06;51.28;101118.56;5051928;28;20128;-78
2023/05/03 03:01:21;;;;;;;3.28;2.10;;;;;;;8.04;51.38;101127.38;5052306;28;20045;-78
2023/05/03 03:03:48;;;;;;;5.40;2.20;;;;;;;8.00;51.13;101116.09;5050738;28;20452;-79
2023/05/03 03:06:15;;;;;;;2.60;2.22;;;;;;;7.96;50.87;101119.69;5050507;28;20087;-78
2023/05/03 03:08:42;;;;;;;3.20;2.30;;;;;;;7.92;51.19;101113.66;5051597;28;20041;-78
2023/05/03 03:11:09;;;;;;;5.60;2.38;;;;;;;7.87;50.98;101107.66;5052249;28;20095;-78
2023/05/03 03:13:38;;;;;;;4.28;2.40;;;;;;;7.85;51.09;101105.97;5052183;28;20053;-78
2023/05/03 03:16:09;;;;;;;3.85;2.05;;;;;;;7.81;51.66;101106.03;5051603;28;20485;-81
2023/05/03 03:18:36;;;;;;;7.68;2.55;;;;;;;7.80;51.20;101106.94;5050210;28;20044;-79
2023/05/03 03:21:03;;;;;;;4.10;2.70;;;;;;;7.79;51.28;101099.13;5050476;28;20087;-78
2023/05/03 03:23:29;;;;;;;7.75;2.15;;;;;;;7.77;51.42;101093.91;5051912;28;20053;-80
2023/05/03 03:25:56;;;;;;;3.20;2.30;;;;;;;7.77;51.53;101093.03;5051515;28;20099;-80
2023/05/03 03:28:23;;;;;;;5.90;2.20;;;;;;;7.76;51.10;101091.31;5050498;28;20080;-78
2023/05/03 03:30:49;;;;;;;6.28;2.25;;;;;;;7.76;51.33;101086.06;5051491;28;20091;-78
2023/05/03 03:33:16;;;;;;;3.75;2.38;;;;;;;7.75;51.31;101089.59;5050409;28;20049;-80
2023/05/03 03:35:43;;;;;;;6.55;2.70;;;;;;;7.75;51.33;101079.13;5051159;28;20059;-78
2023/05/03 03:38:09;;;;;;;4.15;2.28;;;;;;;7.74;51.21;101085.25;5051066;28;20470;-78
2023/05/03 03:40:36;;;;;;;5.53;2.72;;;;;;;7.75;51.74;101087.84;5050025;28;20124;-79
2023/05/03 03:43:03;;;;;;;5.28;2.20;;;;;;;7.74;51.44;101087.88;5051586;28;20587;-78
2023/05/03 03:45:29;;;;;;;3.25;2.20;;;;;;;7.73;51.70;101092.25;5050992;28;20573;-78
2023/05/03 03:47:56;;;;;;;2.83;2.35;;;;;;;7.73;51.20;101084.41;5049711;28;20050;-79
2023/05/03 03:50:24;;;;;;;4.03;2.67;;;;;;;7.72;51.26;101087.03;5051117;28;20123;-78
2023/05/03 03:52:51;;;;;;;6.80;2.67;;;;;;;7.72;51.65;101084.41;5051378;28;20045;-78
2023/05/03 03:55:18;;;;;;;3.20;1.98;;;;;;;7.70;51.26;101084.44;5050922;28;20479;-78
2023/05/03 03:57:44;;;;;;;5.30;2.67;;;;;;;7.71;51.53;101090.56;5050971;28;20051;-78
2023/05/03 04:00:11;;;;;;;4.15;2.80;;;;;;;7.69;52.05;101090.59;5051091;28;20131;-80
2023/05/03 04:02:38;;;;;;;7.38;2.50;;;;;;;7.69;51.88;101083.63;5051236;28;20041;-79
2023/05/03 04:05:06;;;;;;;4.75;2.65;;;;;;;7.69;51.91;101085.38;5050619;28;20045;-77
2023/05/03 04:07:33;;;;;;;8.27;3.08;;;;;;;7.71;51.95;101077.47;5050875;28;20115;-78
2023/05/03 04:10:00;;;;;;;5.00;2.67;;;;;;;7.71;52.25;101083.59;5049928;28;20048;-79
2023/05/03 04:12:27;;;;;;;8.82;2.30;;;;;;;7.72;51.92;101079.19;5050994;28;20099;-78
2023/05/03 04:14:54;;;;;;;5.80;3.13;;;;;;;7.71;52.10;101080.09;5050587;28;20124;-79
2023/05/03 04:17:20;;;;;;;7.57;2.85;;;;;;;7.69;52.03;101081.00;5050275;28;20037;-79
2023/05/03 04:19:47;;;;;;;8.20;2.20;;;;;;;7.70;52.28;101079.22;5050994;28;20080;-79
2023/05/03 04:22:14;;;;;;;5.75;2.50;;;;;;;7.70;52.00;101076.59;5051007;28;20040;-79
2023/05/03 04:24:40;;;;;;;3.58;2.47;;;;;;;7.71;52.26;101088.81;5050914;28;20044;-83
2023/05/03 04:27:07;;;;;;;5.30;2.10;;;;;;;7.73;52.14;101081.78;5050156;28;20374;-79
2023/05/03 04:29:34;;;;;;;5.15;2.00;;;;;;;7.74;52.29;101080.03;5050776;28;20045;-80
2023/05/03 04:32:01;;;;;;;5.32;2.28;;;;;;;7.75;52.50;101081.75;5049488;28;20123;-79
2023/05/03 04:34:29;;;;;;;6.47;2.20;;;;;;;7.76;52.14;101075.59;5050642;28;20077;-80
2023/05/03 04:36:55;;;;;;;4.78;1.92;;;;;;;7.77;52.36;101079.94;5050031;28;20140;-78
2023/05/03 04:39:22;;;;;;;6.53;2.10;;;;;;;7.77;52.23;101086.03;5050704;28;20055;-77
2023/05/03 04:41:49;;;;;;;5.53;1.98;;;;;;;7.77;52.37;101088.66;5049253;28;20044;-80
2023/05/03 04:44:16;;;;;;;3.47;1.90;;;;;;;7.79;52.31;101099.13;5050657;28;20053;-80
2023/05/03 04:46:43;;;;;;;5.45;1.73;;;;;;;7.80;52.32;101096.47;5049633;28;20116;-78
2023/05/03 04:49:09;;;;;;;3.90;1.50;;;;;;;7.83;52.20;101100.78;5050715;28;20512;-80
2023/05/03 04:51:36;;;;;;;5.00;1.90;;;;;;;7.86;52.10;101097.22;5049252;28;20040;-79
2023/05/03 04:54:03;;;;;;;4.55;1.88;;;;;;;7.89;52.46;101097.16;5050637;28;20139;-79
2023/05/03 04:56:30;;;;;;;6.38;1.95;;;;;;;7.92;52.45;101099.66;5050008;28;20072;-77
2023/05/03 04:58:57;;;;;;;5.38;2.03;;;;;;;7.94;52.49;101106.63;5049860;28;20091;-78
2023/05/03 05:01:26;;;;;;;7.57;1.75;;;;;;;7.98;52.51;101114.41;5050601;28;20041;-78
2023/05/03 05:03:53;;;;;;;4.75;1.83;;;;;;;8.01;52.03;101116.97;5050856;28;20473;-78
2023/05/03 05:06:20;;;;;;;4.18;1.70;;;;;;;8.05;52.41;101113.34;5050270;28;20040;-78
2023/05/03 05:08:47;;;;;;;4.30;1.50;;;;;;;8.09;52.14;101122.88;5048892;28;20064;-80
2023/05/03 05:11:13;;;;;;;4.78;1.88;;;;;;;8.13;52.33;101123.66;5050206;28;20080;-78
2023/05/03 05:13:40;;;;;;;7.30;2.67;;;;;;;8.16;52.16;101129.72;5050192;28;20103;-79
2023/05/03 05:16:07;;;;;;;4.22;1.73;;;;;;;8.20;52.25;101130.47;5049816;28;20469;-81
2023/05/03 05:18:33;;;;;;;9.80;2.22;;;;;;;8.24;52.42;101133.88;5050009;28;20041;-79
2023/05/03 05:21:00;;;;;;;4.43;1.95;;;;;;;8.26;52.49;101134.72;5050046;28;20052;-79
2023/05/03 05:23:27;;;;;;;5.95;2.00;;;;;;;8.29;52.71;101142.50;5050568;28;20049;-80
2023/05/03 05:25:53;;;;;;;3.33;1.85;;;;;;;8.32;52.44;101143.28;5048558;28;20879;-79
2023/05/03 05:28:20;;;;;;;6.75;2.20;;;;;;;8.35;52.52;101142.34;5049771;28;20079;-81
2023/05/03 05:30:46;;;;;;;5.28;2.45;;;;;;;8.41;52.52;101157.09;5050386;28;20405;-78
2023/05/03 05:33:13;;;;;;;4.13;1.92;;;;;;;8.43;52.59;101150.03;5050204;28;20037;-80
2023/05/03 05:35:44;;;;;;;3.88;1.95;;;;;;;8.46;52.80;101145.53;5048572;28;20115;-78
2023/05/03 05:38:11;;;;;;;5.05;2.05;;;;;;;8.50;52.69;101150.72;5049655;28;20048;-78
2023/05/03 05:40:37;;;;;;;4.18;1.73;;;;;;;8.52;52.44;101159.44;5048750;28;20641;-79
2023/05/03 05:43:04;;;;;;;6.25;2.03;;;;;;;8.54;52.75;101162.91;5049850;28;20099;-79
2023/05/03 05:45:30;;;;;;;8.32;2.05;;;;;;;8.57;52.65;101168.06;5049740;28;20056;-80
2023/05/03 05:47:57;;;;;;;4.65;1.98;;;;;;;8.59;52.75;101166.25;5049500;28;20494;-80
2023/05/03 05:52:58;;;;;;;5.63;1.75;;;;;;;8.67;52.75;101158.22;5071913;28;20554;-81
2023/05/03 05:55:24;;;;;;;10.27;2.20;;;;;;;8.71;52.70;101162.47;5073088;28;20048;-81
2023/05/03 05:57:51;;;;;;;4.80;1.95;;;;;;;8.77;52.77;101174.56;5072736;28;20044;-81
2023/05/03 06:00:18;;;;;;;5.70;1.83;;;;;;;8.80;52.56;101161.34;5073255;28;20049;-81
2023/05/03 06:02:44;;;;;;;9.80;2.35;;;;;;;8.85;52.23;101167.34;5073004;28;20557;-81
2023/05/03 06:05:11;;;;;;;3.97;1.92;;;;;;;8.89;52.60;101162.88;5055188;28;20345;-81
2023/05/03 06:07:38;;;;;;;6.28;2.10;;;;;;;8.94;52.23;101169.69;5072320;28;20082;-81
2023/05/03 06:10:05;;;;;;;8.68;2.22;;;;;;;8.97;52.39;101171.41;5073200;28;20044;-82
2023/05/03 06:12:32;;;;;;;10.55;2.58;;;;;;;9.01;52.40;101175.66;5072786;28;20093;-81
2023/05/03 06:14:59;;;;;;;5.22;2.50;;;;;;;9.06;52.44;101172.91;5072929;28;20052;-82
2023/05/03 06:17:28;;;;;;;3.65;2.03;;;;;;;9.11;52.49;101173.63;5072754;28;20052;-81
2023/05/03 06:19:56;;;;;;;3.80;2.20;;;;;;;9.17;52.63;101183.13;5073074;28;20067;-81
2023/05/03 06:22:24;;;;;;;5.80;2.03;;;;;;;9.22;52.46;101183.84;5072916;28;20565;-82
2023/05/03 06:24:50;;;;;;;4.25;1.80;;;;;;;9.28;51.97;101182.81;5072344;28;20048;-81
2023/05/03 06:27:17;;;;;;;6.63;2.10;;;;;;;9.33;51.89;101180.91;5072317;28;20137;-81
2023/05/03 06:29:43;;;;;;;6.43;1.80;;;;;;;9.38;51.70;101193.00;5054816;28;20095;-81
2023/05/03 06:32:10;;;;;;;6.28;2.10;;;;;;;9.44;51.91;101183.22;5055128;28;20048;-80
2023/05/03 06:34:37;;;;;;;6.25;2.50;;;;;;;9.49;51.86;101176.94;5072129;28;20401;-82
2023/05/03 06:37:03;;;;;;;2.13;1.50;;;;;;;9.54;51.69;101184.69;5054184;28;20040;-82
2023/05/03 06:39:30;;;;;;;9.18;2.00;;;;;;;9.58;51.20;101182.81;5072513;28;20080;-82
2023/05/03 06:41:56;;;;;;;4.88;1.80;;;;;;;9.63;51.60;101188.81;5072748;28;20051;-82
2023/05/03 06:44:23;;;;;;;5.40;1.77;;;;;;;9.68;51.57;101191.31;5072778;28;20056;-82
2023/05/03 06:46:50;;;;;;;10.45;2.20;;;;;;;9.74;51.44;101188.47;5071614;28;20044;-82
2023/05/03 06:49:17;;;;;;;4.55;1.70;;;;;;;9.78;51.23;101190.97;5072155;28;20127;-82
2023/05/03 06:51:43;;;;;;;2.17;1.40;;;;;;;9.84;51.15;101191.69;5072370;28;20048;-82
2023/05/03 06:54:10;;;;;;;3.20;1.70;;;;;;;9.88;50.72;101190.69;5072341;28;20060;-82
2023/05/03 06:56:36;;;;;;;5.63;1.80;;;;;;;9.92;51.08;101192.31;5071306;28;20045;-82
2023/05/03 06:59:03;;;;;;;6.55;1.58;;;;;;;9.98;50.84;101188.66;5072447;28;20057;-82
2023/05/03 07:01:31;;;;;;;8.75;1.70;;;;;;;10.02;50.77;101188.47;5070159;28;20052;-82
2023/05/03 07:03:57;;;;;;;4.13;1.40;;;;;;;10.07;50.71;101192.75;5052409;28;20123;-82
2023/05/03 07:06:24;;;;;;;5.15;1.90;;;;;;;10.13;50.53;101189.94;5068274;28;20095;-80
2023/05/03 07:08:52;;;;;;;2.88;1.40;;;;;;;10.17;50.50;101187.13;5053379;28;20040;-82
2023/05/03 07:11:23;;;;;;;8.63;1.27;;;;;;;10.22;50.27;101181.72;5049833;28;20109;-81
2023/05/03 07:13:50;;;;;;;5.70;1.27;;;;;;;10.27;50.19;101189.47;5051735;28;20057;-81
2023/05/03 07:16:21;;;;;;;4.35;1.02;;;;;;;10.30;50.01;101186.75;5053399;28;20378;-81
2023/05/03 07:18:47;;;;;;;3.03;1.17;;;;;;;10.36;50.06;101180.41;5053404;28;20055;-81
2023/05/03 07:21:14;;;;;;;3.95;1.30;;;;;;;10.40;49.98;101187.31;5071058;28;20056;-81
2023/05/03 07:23:43;;;;;;;3.83;1.25;;;;;;;10.45;49.91;101188.03;5053247;28;20389;-81
2023/05/03 07:26:09;;;;;;;6.60;1.60;;;;;;;10.51;49.61;101184.34;5071044;28;20044;-81
2023/05/03 07:28:36;;;;;;;3.65;1.23;;;;;;;10.56;49.74;101177.16;5070938;28;20050;-80
2023/05/03 07:31:03;;;;;;;4.45;1.13;;;;;;;10.63;49.81;101175.16;5051390;28;20060;-81
2023/05/03 07:33:33;;;;;;;4.18;1.15;;;;;;;10.68;49.89;101173.22;5064488;28;20055;-81
2023/05/03 07:36:00;;;;;;;5.65;1.25;;;;;;;10.75;49.86;101166.84;5069816;28;20045;-81
2023/05/03 07:38:26;;;;;;;6.78;1.45;;;;;;;10.84;49.75;101170.06;5068179;28;20040;-81
2023/05/03 07:40:53;;;;;;;4.80;1.33;;;;;;;10.92;49.47;101170.66;5051480;28;20056;-81
2023/05/03 07:43:22;;;;;;;4.65;1.30;;;;;;;11.00;49.17;101168.59;5069540;28;20049;-81
2023/05/03 07:45:48;;;;;;;3.47;1.20;;;;;;;11.07;49.32;101163.97;5070583;28;20076;-81
2023/05/03 07:48:15;;;;;;;4.25;0.90;;;;;;;11.15;49.12;101166.31;5070578;28;20047;-82
2023/05/03 07:50:42;;;;;;;6.47;1.80;;;;;;;11.19;48.79;101167.94;5070310;28;20076;-82
2023/05/03 07:53:11;;;;;;;4.55;1.35;;;;;;;11.21;48.60;101174.84;5070729;28;20040;-81
2023/05/03 07:55:37;;;;;;;2.47;1.50;;;;;;;11.26;48.76;101164.16;5070413;28;20057;-82
2023/05/03 07:58:04;;;;;;;5.05;1.25;;;;;;;11.30;49.07;101157.84;5070314;28;20084;-81
2023/05/03 08:00:31;;;;;;;7.07;2.22;;;;;;;11.37;48.99;101158.47;5052868;28;20051;-81
2023/05/03 08:02:57;;;;;;;3.90;1.67;;;;;;;11.45;48.77;101158.19;5070190;28;20074;-81
2023/05/03 08:05:24;;;;;;;5.85;1.67;;;;;;;11.52;48.67;101154.41;5070424;28;20075;-81
2023/05/03 08:07:51;;;;;;;3.15;1.55;;;;;;;11.58;48.41;101151.50;5069331;28;20040;-81
2023/05/03 08:10:18;;;;;;;4.18;1.33;;;;;;;11.63;48.57;101151.34;5070099;28;20091;-81
2023/05/03 08:12:45;;;;;;;5.60;1.60;;;;;;;11.68;48.34;101153.78;5052659;28;20086;-81
2023/05/03 08:15:12;;;;;;;6.88;1.85;;;;;;;11.74;48.40;101145.66;5069905;28;20051;-81
2023/05/03 08:17:43;;;;;;;6.60;1.60;;;;;;;11.80;48.47;101161.22;5069832;28;20040;-81
2023/05/03 08:20:10;;;;;;;4.18;1.42;;;;;;;11.88;48.44;101146.88;5070490;28;20123;-81
2023/05/03 08:22:37;;;;;;;6.68;1.80;;;;;;;11.93;48.38;101152.81;5070033;28;20051;-82
2023/05/03 08:25:04;;;;;;;6.63;1.55;;;;;;;12.00;48.67;101154.28;5069998;28;20123;-82
2023/05/03 08:27:31;;;;;;;1.77;1.20;;;;;;;12.07;48.39;101147.88;5069859;28;20048;-82
2023/05/03 08:30:00;;;;;;;4.80;1.70;;;;;;;12.17;48.19;101139.56;5069979;28;20110;-82
2023/05/03 08:32:27;;;;;;;2.97;1.60;;;;;;;12.24;48.25;101147.19;5070195;28;20048;-81
2023/05/03 08:34:54;;;;;;;5.53;1.83;;;;;;;12.34;48.43;101144.16;5069995;28;20101;-81
2023/05/03 08:37:22;;;;;;;5.00;1.60;;;;;;;12.45;48.30;101152.47;5070014;28;20087;-81
2023/05/03 08:39:48;;;;;;;3.72;1.60;;;;;;;12.56;48.09;101154.66;5069961;28;20127;-81
2023/05/03 08:42:15;;;;;;;4.47;1.48;;;;;;;12.66;47.42;101160.41;5069905;28;20044;-81
2023/05/03 08:44:49;;;;;;;2.45;1.45;;;;;;;12.73;46.84;101158.34;5069504;28;20560;-81
2023/05/03 08:47:16;;;;;;;7.78;1.92;;;;;;;12.82;47.19;101160.59;5069924;28;20051;-81
2023/05/03 08:49:43;;;;;;;5.90;1.92;;;;;;;12.90;47.31;101165.56;5069812;28;20084;-81
2023/05/03 08:52:12;;;;;;;10.23;2.38;;;;;;;12.99;47.62;101158.97;5052146;28;20087;-81
2023/05/03 08:54:40;;;;;;;19.30;6.00;;;;;;;13.08;47.71;101163.84;5051628;28;20552;-81
2023/05/03 08:57:13;;;;;;;6.90;2.53;;;;;;;13.16;46.77;101163.53;5069537;28;20056;-81
2023/05/03 08:59:59;;;;;;;9.45;1.80;;;;;;;13.22;46.03;101155.31;5070124;28;20424;-80
2023/05/03 09:02:27;;;;;;;7.43;2.15;;;;;;;13.31;46.06;101147.88;5070011;28;20044;-82
2023/05/03 09:04:55;;;;;;;6.07;1.70;;;;;;;13.30;45.97;101147.00;5069456;28;20048;-81
2023/05/03 09:07:22;;;;;;;4.53;1.88;;;;;;;13.27;46.30;101153.31;5069462;28;20044;-82
2023/05/03 09:09:48;;;;;;;3.75;1.98;;;;;;;13.26;46.66;101148.09;5069618;28;20098;-82
2023/05/03 09:12:34;;;;;;;5.80;1.83;;;;;;;13.23;46.55;101142.97;5051950;28;20052;-81
2023/05/03 09:15:02;;;;;;;6.60;2.05;;;;;;;13.33;47.38;101135.44;5069643;28;20102;-81
2023/05/03 09:17:29;;;;;;;5.78;1.90;;;;;;;13.40;46.68;101144.81;5069417;28;20045;-82
2023/05/03 09:19:57;;;;;;;2.95;1.63;;;;;;;13.48;46.65;101139.19;5069550;28;20086;-81
2023/05/03 09:22:32;;;;;;;4.00;2.05;;;;;;;13.55;45.72;101137.97;5069228;28;20055;-81
2023/05/03 09:24:59;;;;;;;8.32;1.52;;;;;;;13.63;46.19;101133.19;5069442;28;20055;-81
2023/05/03 09:27:26;;;;;;;2.40;1.42;;;;;;;13.72;46.48;101126.56;5072356;28;20045;-81
2023/05/03 09:29:54;;;;;;;4.00;1.60;;;;;;;13.83;47.08;101133.16;5073465;28;20082;-81
2023/05/03 09:32:21;;;;;;;2.72;1.70;;;;;;;13.90;46.58;101132.75;5073314;28;20071;-81
2023/05/03 09:34:48;;;;;;;7.05;1.83;;;;;;;14.00;46.39;101127.88;5072877;28;20041;-81
2023/05/03 09:37:15;;;;;;;2.55;1.48;;;;;;;14.11;46.21;101123.84;5073311;28;20045;-81
2023/05/03 09:39:44;;;;;;;4.22;1.58;;;;;;;14.20;46.21;101128.66;5073109;28;20477;-82
2023/05/03 09:42:15;;;;;;;3.75;1.45;;;;;;;14.28;46.29;101129.13;5073101;28;20126;-82
2023/05/03 09:44:43;;;;;;;5.63;2.13;;;;;;;14.41;46.21;101134.69;5072703;28;20176;-81
2023/05/03 09:47:11;;;;;;;5.30;1.50;;;;;;;14.52;46.13;101128.84;5072697;28;20075;-82
2023/05/03 09:49:37;;;;;;;4.25;2.00;;;;;;;14.62;46.31;101123.06;5073039;28;20044;-81
2023/05/03 09:52:06;;;;;;;5.78;1.70;;;;;;;14.72;45.64;101119.84;5073089;28;20055;-82
2023/05/03 09:54:36;;;;;;;4.38;1.65;;;;;;;14.84;45.55;101120.16;5072761;28;20044;-82
2023/05/03 09:57:05;;;;;;;4.43;1.50;;;;;;;14.92;45.42;101123.25;5072727;28;20439;-81
2023/05/03 09:59:32;;;;;;;4.28;1.70;;;;;;;15.01;45.15;101131.66;5072543;28;20484;-81
2023/05/03 10:02:01;;;;;;;7.85;1.67;;;;;;;15.08;45.50;101125.94;5072711;28;20049;-81
2023/05/03 10:04:55;;;;;;;4.03;1.85;;;;;;;15.15;44.25;101129.13;5072676;28;20095;-82
2023/05/03 10:07:26;;;;;;;5.00;1.60;;;;;;;15.24;44.69;101118.00;5072597;28;20044;-81
2023/05/03 10:09:55;;;;;;;4.45;1.88;;;;;;;15.32;45.13;101117.56;5072735;28;20052;-82
2023/05/03 10:12:22;;;;;;;3.90;1.70;;;;;;;15.39;45.22;101102.16;5054510;28;20055;-82
2023/05/03 10:14:51;;;;;;;6.15;1.92;;;;;;;15.46;44.25;101100.91;5054711;28;20685;-81
2023/05/03 10:17:32;;;;;;;3.53;1.70;;;;;;;15.53;44.62;101106.72;5072340;28;20052;-81
2023/05/03 10:20:22;;;;;;;2.90;1.55;;;;;;;15.66;44.52;101106.84;5072641;28;20048;-82
2023/05/03 10:23:07;;;;;;;3.63;1.73;;;;;;;15.74;44.52;101098.47;5072012;28;20044;-82
2023/05/03 10:25:36;;;;;;;4.53;1.67;;;;;;;15.88;44.20;101093.22;5072296;28;20052;-81
2023/05/03 10:28:03;;;;;;;4.80;1.77;;;;;;;15.99;44.51;101097.06;5072211;28;20057;-82
2023/05/03 10:30:33;;;;;;;3.30;1.80;;;;;;;16.08;44.15;101106.31;5072351;28;20044;-81
2023/05/03 10:33:12;;;;;;;4.93;1.98;;;;;;;16.15;43.50;101097.03;5072559;28;20084;-82
2023/05/03 10:35:41;;;;;;;4.97;1.70;;;;;;;16.30;43.93;101097.94;5071271;28;20497;-82
2023/05/03 10:38:21;;;;;;;4.15;2.03;;;;;;;16.38;43.18;101087.66;5072109;28;20087;-82
2023/05/03 10:40:48;;;;;;;4.55;1.77;;;;;;;16.56;43.59;101079.53;5071581;28;20098;-82
2023/05/03 10:43:44;;;;;;;4.85;2.30;;;;;;;16.66;43.05;101087.81;5072472;28;20086;-82
2023/05/03 10:46:30;;;;;;;4.32;2.03;;;;;;;16.83;43.68;101086.78;5055459;28;20724;-82
2023/05/03 10:49:14;;;;;;;4.32;1.85;;;;;;;17.05;43.18;101080.13;5071781;28;20049;-81
2023/05/03 10:51:42;;;;;;;4.90;1.95;;;;;;;17.35;44.65;101084.47;5072582;28;20056;-82
2023/05/03 10:54:08;;;;;;;3.17;1.83;;;;;;;17.70;44.10;101075.97;5072242;28;20500;-82
2023/05/03 10:56:47;;;;;;;3.72;2.03;;;;;;;18.16;43.30;101084.50;5071667;28;20051;-81
2023/05/03 10:59:13;;;;;;;2.92;1.58;;;;;;;18.74;44.73;101078.78;5072332;28;20051;-82
2023/05/03 11:01:43;;;;;;;3.47;1.63;;;;;;;19.39;44.01;101072.44;5072209;28;20051;-82
2023/05/03 11:04:18;;;;;;;4.15;2.15;;;;;;;20.07;42.41;101079.91;5072057;28;20453;-82
2023/05/03 11:06:48;;;;;;;3.70;1.80;;;;;;;20.75;42.45;101078.31;5071319;28;20400;-82
2023/05/03 11:09:15;;;;;;;2.65;2.05;;;;;;;21.35;41.34;101068.16;5072133;28;20067;-82
2023/05/03 11:11:42;;;;;;;6.10;1.90;;;;;;;21.91;40.02;101056.53;5072015;28;20041;-82
2023/05/03 11:14:12;;;;;;;3.53;1.90;;;;;;;22.38;39.43;101070.38;5072089;28;20053;-82
2023/05/03 11:16:46;;;;;;;4.75;1.90;;;;;;;22.83;39.34;101062.16;5053103;28;20477;-82
2023/05/03 11:19:14;;;;;;;6.32;1.92;;;;;;;23.25;38.20;101059.25;5072217;28;20045;-82
2023/05/03 11:21:42;;;;;;;4.00;1.63;;;;;;;23.63;37.57;101069.38;5054000;28;20044;-82
2023/05/03 11:24:09;;;;;;;3.63;1.50;;;;;;;23.96;36.15;101059.19;5071827;28;20044;-82
2023/05/03 11:26:37;;;;;;;3.63;1.70;;;;;;;24.30;35.94;101057.84;5070629;28;20036;-82
2023/05/03 11:29:04;;;;;;;2.30;1.30;;;;;;;24.59;35.09;101056.88;5053891;28;20288;-82
2023/05/03 11:31:31;;;;;;;2.35;1.45;;;;;;;24.88;34.44;101057.78;5071437;28;20044;-82
2023/05/03 11:33:58;;;;;;;4.18;1.45;;;;;;;25.11;34.04;101063.59;5071778;28;20070;-82
2023/05/03 11:36:26;;;;;;;4.90;1.60;;;;;;;25.31;33.76;101053.53;5070970;28;20047;-82
2023/05/03 11:38:53;;;;;;;3.42;1.58;;;;;;;25.42;32.85;101059.72;5071235;28;20042;-82